Time;durP1;ratioP1;P1;durP2;ratioP2;P2;SDS_P1;SDS_P2;PMS_P1;PMS_P2;Temp;Humidity;BMP_temperature;BMP_pressure;BME280_temperature;BME280_humidity;BME280_pressure;Samples;Min_cycle;Max_cycle;Signal;HPM_P1;HPM_P2
2022/07/30 00:00:26;;;;;;;6.05;5.45;;;15.80;99.90;;;;;;5069714;28;20201;-51
2022/07/30 00:02:54;;;;;;;5.88;5.38;;;15.80;99.90;;;;;;5060835;28;20628;-51
2022/07/30 00:05:22;;;;;;;6.32;5.72;;;15.70;99.90;;;;;;5072126;28;20213;-51
2022/07/30 00:07:50;;;;;;;8.57;6.10;;;15.60;99.90;;;;;;5071442;28;20709;-51
2022/07/30 00:10:21;;;;;;;7.32;6.07;;;15.70;99.90;;;;;;5071844;28;20227;-49
2022/07/30 00:12:50;;;;;;;9.18;6.60;;;15.70;99.90;;;;;;5072404;28;20204;-51
2022/07/30 00:15:18;;;;;;;9.40;7.03;;;15.70;99.90;;;;;;5072233;28;20266;-50
2022/07/30 00:17:46;;;;;;;8.45;6.32;;;15.70;99.90;;;;;;5071356;28;20227;-50
2022/07/30 00:20:16;;;;;;;7.20;6.50;;;15.60;99.90;;;;;;5067488;28;20563;-50
2022/07/30 00:22:45;;;;;;;6.85;6.03;;;15.60;99.90;;;;;;5071122;28;20225;-50
2022/07/30 00:25:14;;;;;;;7.40;6.40;;;15.50;99.90;;;;;;5072202;28;20209;-51
2022/07/30 00:27:44;;;;;;;7.70;6.60;;;15.60;99.90;;;;;;5071709;28;20220;-51
2022/07/30 00:30:13;;;;;;;7.10;6.40;;;15.50;99.90;;;;;;5071583;28;20201;-51
2022/07/30 00:32:41;;;;;;;9.20;7.50;;;15.50;99.90;;;;;;5071270;28;20205;-49
2022/07/30 00:35:10;;;;;;;8.07;7.37;;;15.50;99.90;;;;;;5071779;28;20205;-50
2022/07/30 00:37:38;;;;;;;7.80;6.97;;;15.50;99.90;;;;;;5071106;28;20271;-52
2022/07/30 00:40:08;;;;;;;10.02;7.40;;;15.40;99.90;;;;;;5071685;28;20216;-51
2022/07/30 00:42:40;;;;;;;10.15;7.65;;;15.40;99.90;;;;;;5071558;28;20775;-50
2022/07/30 00:45:11;;;;;;;10.32;7.40;;;15.40;99.90;;;;;;5070972;28;20639;-51
2022/07/30 00:47:39;;;;;;;8.57;7.60;;;15.40;99.90;;;;;;5061263;28;20232;-51
2022/07/30 00:50:09;;;;;;;8.77;7.70;;;15.40;99.90;;;;;;5065440;28;20206;-51
2022/07/30 00:52:38;;;;;;;8.77;7.95;;;15.30;99.90;;;;;;5071041;28;20213;-51
2022/07/30 00:55:09;;;;;;;9.75;8.27;;;15.30;99.90;;;;;;5071554;28;20572;-51
2022/07/30 00:57:37;;;;;;;11.48;10.27;;;15.30;99.90;;;;;;5071208;28;20251;-51
2022/07/30 01:00:08;;;;;;;11.30;10.27;;;15.30;99.90;;;;;;5071576;28;20216;-50
2022/07/30 01:02:38;;;;;;;13.57;10.07;;;15.30;99.90;;;;;;5062103;28;20672;-51
2022/07/30 01:05:07;;;;;;;12.35;9.57;;;15.30;99.90;;;;;;5071492;28;20201;-51
2022/07/30 01:07:35;;;;;;;13.15;9.43;;;15.30;99.90;;;;;;5042900;28;20358;-52
2022/07/30 01:10:04;;;;;;;10.23;8.30;;;15.30;99.90;;;;;;5070285;28;20209;-50
2022/07/30 01:12:33;;;;;;;10.37;7.40;;;15.20;99.90;;;;;;5071535;28;20205;-50
2022/07/30 01:15:04;;;;;;;12.23;8.38;;;15.20;99.90;;;;;;5071426;28;20221;-51
2022/07/30 01:17:33;;;;;;;9.30;7.70;;;15.20;99.90;;;;;;5070635;28;20221;-50
2022/07/30 01:20:06;;;;;;;10.10;8.10;;;15.20;99.90;;;;;;5066892;28;20224;-51
2022/07/30 01:22:53;;;;;;;8.33;7.53;;;15.10;99.90;;;;;;5070208;28;20236;-51
2022/07/30 01:25:50;;;;;;;9.43;8.35;;;15.10;99.90;;;;;;5070851;28;20205;-50
2022/07/30 01:28:23;;;;;;;9.07;7.57;;;15.00;99.90;;;;;;5066172;28;20295;-50
2022/07/30 01:30:52;;;;;;;9.40;7.97;;;15.00;99.90;;;;;;5070030;28;20248;-51
2022/07/30 01:33:23;;;;;;;9.77;8.03;;;14.90;99.90;;;;;;5068298;28;20201;-50
2022/07/30 01:35:52;;;;;;;9.37;8.17;;;14.90;99.90;;;;;;5071061;28;20205;-50
2022/07/30 01:38:22;;;;;;;8.97;7.43;;;14.90;99.90;;;;;;5076855;28;20225;-50
2022/07/30 01:40:54;;;;;;;10.77;8.20;;;14.90;99.90;;;;;;5072680;28;20630;-51
2022/07/30 01:43:24;;;;;;;9.47;7.90;;;14.90;99.90;;;;;;5069829;28;20293;-51
2022/07/30 01:45:53;;;;;;;9.93;9.00;;;14.90;99.90;;;;;;5064058;28;20206;-50
2022/07/30 01:48:25;;;;;;;11.17;8.73;;;14.90;99.90;;;;;;5065526;28;20285;-51
2022/07/30 01:50:55;;;;;;;10.43;8.57;;;14.80;99.90;;;;;;5070225;28;20705;-51
2022/07/30 01:53:25;;;;;;;10.13;9.00;;;14.80;99.90;;;;;;5069806;28;20208;-51
2022/07/30 01:55:55;;;;;;;9.87;8.80;;;14.80;99.90;;;;;;5069911;28;20213;-50
2022/07/30 01:58:29;;;;;;;11.37;8.97;;;14.70;99.90;;;;;;5069739;28;20306;-50
2022/07/30 02:00:58;;;;;;;11.77;9.03;;;14.70;99.90;;;;;;5067980;28;20200;-50
2022/07/30 02:03:26;;;;;;;10.47;7.87;;;14.70;99.90;;;;;;5063559;28;20233;-50
2022/07/30 02:05:58;;;;;;;10.37;8.30;;;14.70;99.90;;;;;;5070359;28;20204;-52
2022/07/30 02:08:34;;;;;;;12.00;8.67;;;14.70;99.90;;;;;;5068601;28;20274;-51
2022/07/30 02:11:07;;;;;;;11.53;9.17;;;14.70;99.90;;;;;;5046974;28;20642;-51
2022/07/30 02:13:42;;;;;;;10.57;9.47;;;14.70;99.90;;;;;;5047153;28;20260;-51
2022/07/30 02:16:16;;;;;;;15.73;10.83;;;14.70;99.90;;;;;;5033669;28;20206;-50
2022/07/30 02:18:55;;;;;;;11.87;9.77;;;14.60;99.90;;;;;;5048736;28;20304;-51
2022/07/30 02:21:26;;;;;;;13.73;10.50;;;14.60;99.90;;;;;;5035629;28;20310;-50
2022/07/30 02:24:07;;;;;;;10.90;9.80;;;14.60;99.90;;;;;;5050218;28;20240;-50
2022/07/30 02:26:40;;;;;;;10.87;9.13;;;14.70;99.90;;;;;;5049336;28;20206;-52
2022/07/30 02:29:10;;;;;;;12.40;8.50;;;14.70;99.90;;;;;;5036188;28;20221;-50
2022/07/30 02:31:41;;;;;;;13.07;8.27;;;14.70;99.90;;;;;;5035024;28;20240;-51
2022/07/30 02:34:13;;;;;;;8.73;7.67;;;14.70;99.90;;;;;;5049668;28;20198;-51
2022/07/30 02:36:43;;;;;;;9.03;8.13;;;14.70;99.90;;;;;;5049425;28;20209;-49
2022/07/30 02:39:13;;;;;;;10.70;8.80;;;14.70;99.90;;;;;;5048882;28;20210;-50
2022/07/30 02:41:44;;;;;;;11.53;8.60;;;14.70;99.90;;;;;;5049417;28;20267;-50
2022/07/30 02:44:18;;;;;;;11.47;8.33;;;14.60;99.90;;;;;;5049661;28;20282;-51
2022/07/30 02:46:49;;;;;;;9.53;8.43;;;14.70;99.90;;;;;;5044109;28;20754;-51
2022/07/30 02:49:19;;;;;;;10.67;8.73;;;14.60;99.90;;;;;;5049508;28;20201;-51
2022/07/30 02:51:48;;;;;;;11.13;8.70;;;14.60;99.90;;;;;;5048719;28;20202;-50
2022/07/30 02:54:19;;;;;;;11.93;8.87;;;14.60;99.90;;;;;;5048863;28;20267;-49
2022/07/30 02:56:50;;;;;;;13.17;9.00;;;14.60;99.90;;;;;;5048909;28;20214;-51
2022/07/30 02:59:21;;;;;;;10.53;8.83;;;14.60;99.90;;;;;;5049807;28;20209;-51
2022/07/30 03:01:50;;;;;;;9.80;8.40;;;14.60;99.90;;;;;;5048986;28;20210;-50
2022/07/30 03:04:21;;;;;;;11.20;9.53;;;14.60;99.90;;;;;;5049330;28;20225;-51
2022/07/30 03:06:50;;;;;;;11.70;10.43;;;14.60;99.90;;;;;;5048328;28;20270;-51
2022/07/30 03:09:20;;;;;;;17.43;12.07;;;14.60;99.90;;;;;;5049285;28;20209;-49
2022/07/30 03:11:52;;;;;;;14.10;11.43;;;14.60;99.90;;;;;;5049111;28;20194;-50
2022/07/30 03:14:20;;;;;;;17.07;10.80;;;14.50;99.90;;;;;;5049450;28;20603;-51
2022/07/30 03:16:56;;;;;;;13.47;10.27;;;14.60;99.90;;;;;;5048959;28;20210;-50
2022/07/30 03:19:28;;;;;;;12.17;10.47;;;14.60;99.90;;;;;;5043513;28;20206;-51
2022/07/30 03:21:58;;;;;;;11.63;10.43;;;14.50;99.90;;;;;;5041805;28;20689;-51
2022/07/30 03:24:28;;;;;;;11.33;9.07;;;14.50;99.90;;;;;;5047846;28;20647;-50
2022/07/30 03:26:59;;;;;;;10.07;9.03;;;14.50;99.90;;;;;;5049371;28;20209;-50
2022/07/30 03:29:29;;;;;;;12.30;8.73;;;14.50;99.90;;;;;;5049842;28;20201;-51
2022/07/30 03:31:59;;;;;;;9.30;8.30;;;14.50;99.90;;;;;;5048715;28;20206;-51
2022/07/30 03:34:27;;;;;;;11.47;7.50;;;14.40;99.90;;;;;;5048787;28;20205;-49
2022/07/30 03:36:57;;;;;;;11.70;8.82;;;14.50;99.90;;;;;;5048391;28;20220;-49
2022/07/30 03:39:26;;;;;;;9.63;8.07;;;14.50;99.90;;;;;;5051546;28;20308;-51
2022/07/30 03:41:55;;;;;;;11.97;9.47;;;14.60;99.90;;;;;;5053343;28;20229;-50
2022/07/30 03:44:26;;;;;;;9.37;8.37;;;14.60;99.90;;;;;;5052369;28;20239;-51
2022/07/30 03:46:56;;;;;;;9.70;8.70;;;14.50;99.90;;;;;;5052554;28;21010;-51
2022/07/30 03:49:25;;;;;;;9.70;8.63;;;14.50;99.90;;;;;;5052968;28;20256;-51
2022/07/30 03:51:54;;;;;;;9.70;7.90;;;14.50;99.90;;;;;;5053563;28;20206;-51
2022/07/30 03:54:23;;;;;;;9.60;8.17;;;14.50;99.90;;;;;;5052417;28;20256;-51
2022/07/30 03:56:51;;;;;;;9.53;8.63;;;14.50;99.90;;;;;;5052391;28;20635;-51
2022/07/30 03:59:19;;;;;;;12.07;10.17;;;14.50;99.90;;;;;;5052858;28;20205;-50
2022/07/30 04:01:48;;;;;;;11.30;10.20;;;14.50;99.90;;;;;;5051483;28;20197;-50
2022/07/30 04:04:16;;;;;;;12.17;10.33;;;14.50;99.90;;;;;;5052557;28;20255;-50
2022/07/30 04:06:45;;;;;;;12.20;10.30;;;14.60;99.90;;;;;;5052068;28;20205;-51
2022/07/30 04:09:14;;;;;;;11.83;10.50;;;14.70;99.90;;;;;;5052433;28;20236;-50
2022/07/30 04:11:42;;;;;;;13.30;11.02;;;14.80;99.90;;;;;;5052428;28;20206;-51
2022/07/30 04:14:10;;;;;;;13.10;10.00;;;14.80;99.90;;;;;;5052357;28;20781;-51
2022/07/30 04:16:44;;;;;;;13.03;10.67;;;14.80;99.90;;;;;;5052594;28;20209;-51
2022/07/30 04:19:18;;;;;;;11.73;10.57;;;14.80;99.90;;;;;;5048262;28;20257;-50
2022/07/30 04:21:48;;;;;;;10.10;9.07;;;14.90;99.90;;;;;;5044112;28;20198;-50
2022/07/30 04:24:18;;;;;;;9.70;8.70;;;14.90;99.90;;;;;;5051670;28;20205;-49
2022/07/30 04:26:47;;;;;;;8.87;7.97;;;14.90;99.90;;;;;;5052064;28;20201;-51
2022/07/30 04:29:16;;;;;;;8.80;7.90;;;15.00;99.90;;;;;;5052080;28;20262;-50
2022/07/30 04:31:52;;;;;;;9.43;7.87;;;15.10;99.90;;;;;;5051720;28;20213;-50
2022/07/30 04:34:22;;;;;;;9.73;7.47;;;15.00;99.90;;;;;;5051875;28;20741;-50
2022/07/30 04:36:50;;;;;;;11.17;7.87;;;15.00;99.90;;;;;;5051798;28;20229;-50
2022/07/30 04:39:18;;;;;;;10.73;8.03;;;15.10;99.90;;;;;;5051840;28;20205;-48
2022/07/30 04:41:46;;;;;;;11.43;7.77;;;15.10;99.90;;;;;;5052297;28;20205;-51
2022/07/30 04:44:18;;;;;;;10.82;8.27;;;15.30;99.90;;;;;;5051500;28;20206;-50
2022/07/30 04:46:46;;;;;;;10.57;8.85;;;15.40;99.90;;;;;;5051091;28;20236;-51
2022/07/30 04:49:17;;;;;;;10.65;8.52;;;15.50;99.90;;;;;;5051121;28;20582;-51
2022/07/30 04:51:47;;;;;;;10.68;8.05;;;15.50;99.90;;;;;;5051914;28;20205;-51
2022/07/30 04:54:16;;;;;;;9.38;7.50;;;15.50;99.90;;;;;;5050897;28;20235;-50
2022/07/30 04:56:47;;;;;;;7.72;6.93;;;15.50;99.90;;;;;;5051406;28;20210;-50
2022/07/30 04:59:23;;;;;;;8.75;7.85;;;15.60;99.90;;;;;;5051478;28;20208;-50
2022/07/30 05:01:55;;;;;;;12.27;9.27;;;15.60;99.90;;;;;;5051442;28;20294;-51
2022/07/30 05:04:26;;;;;;;11.05;9.13;;;15.60;99.90;;;;;;5056829;28;20213;-51
2022/07/30 05:06:57;;;;;;;11.10;8.88;;;15.50;99.90;;;;;;5058115;28;20233;-51
2022/07/30 05:09:27;;;;;;;8.45;7.63;;;15.60;99.90;;;;;;5055170;28;20670;-52
2022/07/30 05:11:56;;;;;;;10.10;7.65;;;15.60;99.90;;;;;;5051314;28;20622;-50
2022/07/30 05:14:25;;;;;;;12.45;7.95;;;15.60;99.90;;;;;;5043498;28;20218;-50
2022/07/30 05:16:54;;;;;;;9.20;7.95;;;15.60;99.90;;;;;;5035867;28;20203;-51
2022/07/30 05:19:23;;;;;;;13.57;8.82;;;15.70;99.90;;;;;;5044942;28;20895;-52
2022/07/30 05:21:52;;;;;;;14.00;8.07;;;15.70;99.90;;;;;;5042993;28;20210;-50
2022/07/30 05:24:21;;;;;;;10.02;7.55;;;15.70;99.90;;;;;;5049982;28;20251;-49
2022/07/30 05:26:49;;;;;;;10.13;7.47;;;15.80;99.90;;;;;;5051119;28;20275;-50
2022/07/30 05:29:18;;;;;;;8.77;7.47;;;15.80;99.90;;;;;;5051062;28;20198;-49
2022/07/30 05:31:47;;;;;;;9.35;7.45;;;15.80;99.90;;;;;;5041425;28;20210;-50
2022/07/30 05:34:16;;;;;;;9.95;7.68;;;15.80;99.90;;;;;;5039563;28;20218;-50
2022/07/30 05:36:44;;;;;;;10.60;7.38;;;15.80;99.90;;;;;;5050221;28;20209;-51
2022/07/30 05:39:12;;;;;;;9.10;7.53;;;15.90;99.90;;;;;;5050128;28;20256;-50
2022/07/30 05:41:42;;;;;;;9.70;8.63;;;15.90;99.90;;;;;;5046314;28;20203;-50
2022/07/30 05:44:10;;;;;;;13.70;10.27;;;16.00;99.90;;;;;;5043364;28;20202;-51
2022/07/30 05:46:38;;;;;;;9.73;8.73;;;16.00;99.90;;;;;;5048608;28;20263;-51
2022/07/30 05:49:07;;;;;;;10.35;9.25;;;16.10;99.90;;;;;;5041108;28;20226;-50
2022/07/30 05:51:35;;;;;;;11.32;8.57;;;16.10;99.90;;;;;;5035125;28;20213;-51
2022/07/30 05:54:03;;;;;;;10.27;8.48;;;16.20;99.90;;;;;;5034132;28;20562;-51
2022/07/30 05:56:31;;;;;;;9.93;8.63;;;16.20;99.90;;;;;;5044162;28;20667;-51
2022/07/30 05:59:00;;;;;;;11.93;9.88;;;16.20;99.90;;;;;;5038900;28;20221;-51
2022/07/30 06:01:28;;;;;;;9.70;8.90;;;16.30;99.90;;;;;;5047821;28;20209;-51
2022/07/30 06:03:57;;;;;;;10.77;9.65;;;16.30;99.90;;;;;;5031493;28;20207;-51
2022/07/30 06:06:25;;;;;;;12.27;9.10;;;16.40;99.90;;;;;;5036046;28;20279;-52
2022/07/30 06:08:53;;;;;;;12.25;9.15;;;16.40;99.90;;;;;;5053639;28;20768;-50
2022/07/30 06:11:21;;;;;;;10.25;8.63;;;16.50;99.90;;;;;;5066426;28;20206;-51
2022/07/30 06:13:49;;;;;;;10.60;8.07;;;16.60;99.90;;;;;;5063279;28;20201;-50
2022/07/30 06:16:18;;;;;;;8.73;7.78;;;16.70;99.90;;;;;;5069364;28;20204;-51
2022/07/30 06:18:46;;;;;;;9.25;8.02;;;16.80;99.90;;;;;;5067961;28;20819;-51
2022/07/30 06:21:14;;;;;;;9.35;8.38;;;16.90;99.90;;;;;;5035387;28;20339;-50
2022/07/30 06:23:42;;;;;;;10.15;7.47;;;17.00;99.90;;;;;;5048869;28;20287;-51
2022/07/30 06:26:11;;;;;;;8.82;8.05;;;17.10;99.90;;;;;;5048476;28;20253;-50
2022/07/30 06:28:39;;;;;;;9.80;7.85;;;17.20;99.90;;;;;;5049299;28;20233;-51
2022/07/30 06:31:07;;;;;;;10.50;8.75;;;17.30;99.90;;;;;;5049607;28;20197;-50
2022/07/30 06:33:36;;;;;;;10.02;8.98;;;17.40;99.90;;;;;;5041771;28;20269;-51
2022/07/30 06:36:05;;;;;;;9.30;8.48;;;17.40;99.90;;;;;;5032657;28;20343;-51
2022/07/30 06:38:33;;;;;;;12.10;9.95;;;17.50;99.90;;;;;;5047113;28;20229;-50
2022/07/30 06:41:01;;;;;;;12.13;9.30;;;17.50;99.90;;;;;;5032572;28;20214;-51
2022/07/30 06:43:31;;;;;;;10.20;8.45;;;17.40;99.90;;;;;;5047538;28;20206;-51
2022/07/30 06:45:59;;;;;;;11.77;9.40;;;17.50;99.90;;;;;;5047399;28;20237;-50
2022/07/30 06:48:30;;;;;;;10.30;9.32;;;17.60;99.90;;;;;;5048546;28;20805;-51
2022/07/30 06:50:59;;;;;;;9.48;8.55;;;17.70;99.90;;;;;;5049031;28;20981;-51
2022/07/30 06:53:27;;;;;;;10.15;9.07;;;17.80;99.90;;;;;;5048174;28;20202;-50
2022/07/30 06:55:58;;;;;;;11.45;9.20;;;17.90;99.90;;;;;;5036880;28;20213;-50
2022/07/30 06:58:28;;;;;;;9.65;8.75;;;18.10;99.90;;;;;;5043853;28;20248;-51
2022/07/30 07:00:56;;;;;;;13.02;9.15;;;18.10;99.90;;;;;;5046487;28;20555;-50
2022/07/30 07:03:26;;;;;;;10.45;8.48;;;18.30;99.90;;;;;;5047566;28;20266;-51
2022/07/30 07:06:08;;;;;;;20.50;9.20;;;18.50;99.90;;;;;;5044128;28;20225;-50
2022/07/30 07:08:37;;;;;;;10.80;8.40;;;18.70;99.90;;;;;;5047696;28;20230;-50
2022/07/30 07:11:05;;;;;;;9.55;8.60;;;18.80;99.90;;;;;;5046675;28;20682;-49
2022/07/30 07:13:33;;;;;;;11.32;9.35;;;19.10;99.90;;;;;;5048782;28;20629;-49
2022/07/30 07:16:01;;;;;;;9.95;8.70;;;19.20;99.90;;;;;;5051893;28;20953;-50
2022/07/30 07:18:29;;;;;;;11.63;9.25;;;19.30;99.90;;;;;;5048476;28;20295;-50
2022/07/30 07:20:57;;;;;;;10.85;9.18;;;19.50;99.90;;;;;;5049679;28;20212;-50
2022/07/30 07:23:27;;;;;;;9.88;8.88;;;19.60;99.90;;;;;;5051621;28;20213;-51
2022/07/30 07:26:10;;;;;;;10.38;8.90;;;19.70;99.90;;;;;;5052320;28;20221;-50
2022/07/30 07:28:39;;;;;;;12.52;9.43;;;19.70;99.90;;;;;;5051886;28;20225;-50
2022/07/30 07:31:08;;;;;;;11.98;8.90;;;19.80;99.90;;;;;;5051955;28;20339;-49
2022/07/30 07:33:36;;;;;;;12.45;8.65;;;19.80;99.90;;;;;;5052289;28;20209;-51
2022/07/30 07:36:05;;;;;;;12.23;9.45;;;19.90;99.90;;;;;;5052167;28;20279;-50
2022/07/30 07:38:35;;;;;;;10.23;9.00;;;20.00;99.90;;;;;;5051313;28;20233;-50
2022/07/30 07:41:04;;;;;;;10.20;8.65;;;20.10;99.90;;;;;;5052070;28;20216;-50
2022/07/30 07:43:32;;;;;;;10.80;7.78;;;20.10;99.90;;;;;;5051817;28;20210;-49
2022/07/30 07:46:01;;;;;;;10.50;8.10;;;20.40;99.90;;;;;;5052188;28;20681;-49
2022/07/30 07:48:29;;;;;;;15.25;8.52;;;20.60;99.90;;;;;;5050665;28;20302;-50
2022/07/30 07:50:57;;;;;;;12.32;8.82;;;20.80;99.90;;;;;;5052195;28;20267;-50
2022/07/30 07:53:27;;;;;;;10.68;7.95;;;21.00;99.90;;;;;;5050881;28;20267;-50
2022/07/30 07:55:57;;;;;;;9.60;8.27;;;21.10;99.90;;;;;;5051456;28;20761;-51
2022/07/30 07:58:26;;;;;;;9.95;8.98;;;21.30;99.90;;;;;;5052011;28;20221;-49
2022/07/30 08:00:57;;;;;;;10.85;8.85;;;21.60;99.90;;;;;;5051813;28;20202;-51
2022/07/30 08:03:26;;;;;;;11.00;8.32;;;21.70;99.90;;;;;;5051018;28;20206;-49
2022/07/30 08:05:57;;;;;;;13.25;8.93;;;21.90;99.90;;;;;;5049107;28;20560;-50
2022/07/30 08:08:35;;;;;;;10.02;8.93;;;21.80;99.90;;;;;;5050669;28;20225;-50
2022/07/30 08:11:06;;;;;;;9.65;8.38;;;21.90;99.90;;;;;;5050908;28;20713;-50
2022/07/30 08:13:34;;;;;;;11.38;8.77;;;21.90;99.90;;;;;;5048660;28;20206;-50
2022/07/30 08:16:19;;;;;;;10.68;8.60;;;21.90;99.90;;;;;;5051885;28;20217;-51
2022/07/30 08:18:47;;;;;;;9.18;8.15;;;22.30;99.90;;;;;;5049782;28;20228;-49
2022/07/30 08:21:15;;;;;;;11.65;7.95;;;22.50;99.90;;;;;;5050057;28;20321;-50
2022/07/30 08:23:43;;;;;;;10.75;8.80;;;22.60;99.90;;;;;;5050654;28;20209;-51
2022/07/30 08:26:13;;;;;;;10.77;7.80;;;22.90;99.90;;;;;;5041941;28;20943;-51
2022/07/30 08:28:41;;;;;;;14.32;8.40;;;23.10;99.90;;;;;;5048815;28;20264;-51
2022/07/30 08:31:10;;;;;;;10.93;8.30;;;23.20;99.90;;;;;;5048280;28;20607;-50
2022/07/30 08:33:38;;;;;;;11.20;8.10;;;23.30;99.90;;;;;;5046291;28;20205;-50
2022/07/30 08:36:06;;;;;;;14.43;8.55;;;23.30;99.90;;;;;;5052776;28;20236;-50
2022/07/30 08:38:37;;;;;;;11.45;8.48;;;23.00;99.90;;;;;;5053591;28;20992;-51
2022/07/30 08:41:06;;;;;;;8.60;7.70;;;23.10;99.90;;;;;;5049127;28;20221;-51
2022/07/30 08:43:36;;;;;;;11.40;7.80;;;23.30;99.90;;;;;;5045270;28;20206;-51
2022/07/30 08:46:08;;;;;;;9.32;7.93;;;23.40;99.90;;;;;;5048272;28;20252;-50
2022/07/30 08:48:37;;;;;;;9.52;8.38;;;23.50;99.90;;;;;;5042959;28;20221;-51
2022/07/30 08:51:05;;;;;;;9.68;7.72;;;23.20;99.90;;;;;;5044995;28;21003;-51
2022/07/30 08:53:34;;;;;;;16.02;8.38;;;23.10;99.90;;;;;;5046680;28;20280;-51
2022/07/30 08:56:02;;;;;;;10.32;8.05;;;23.00;99.90;;;;;;5049657;28;20214;-50
2022/07/30 08:58:32;;;;;;;12.02;7.25;;;22.70;99.90;;;;;;5050105;28;20630;-51
2022/07/30 09:01:02;;;;;;;12.98;7.95;;;22.90;99.90;;;;;;5050508;28;20260;-51
2022/07/30 09:03:31;;;;;;;11.25;7.65;;;23.10;99.90;;;;;;5049739;28;20210;-51
2022/07/30 09:06:01;;;;;;;10.45;7.68;;;23.30;99.90;;;;;;5049744;28;20954;-51
2022/07/30 09:08:29;;;;;;;13.63;7.43;;;23.50;99.90;;;;;;5048701;28;20226;-51
2022/07/30 09:10:58;;;;;;;12.13;7.30;;;23.60;99.90;;;;;;5049781;28;20283;-51
2022/07/30 09:13:28;;;;;;;9.52;6.53;;;23.60;99.90;;;;;;5047254;28;20209;-50
2022/07/30 09:15:56;;;;;;;10.32;7.70;;;23.70;99.90;;;;;;5047213;28;20210;-51
2022/07/30 09:18:31;;;;;;;10.45;7.38;;;23.70;99.90;;;;;;5049147;28;20229;-52
2022/07/30 09:21:01;;;;;;;11.27;7.75;;;23.60;99.90;;;;;;5051285;28;20205;-50
2022/07/30 09:23:29;;;;;;;9.57;7.10;;;23.60;99.90;;;;;;5049897;28;20674;-51
2022/07/30 09:25:59;;;;;;;10.48;7.20;;;23.60;99.90;;;;;;5050924;28;20256;-50
2022/07/30 09:28:30;;;;;;;10.93;7.25;;;23.60;99.90;;;;;;5049908;28;20251;-51
2022/07/30 09:30:58;;;;;;;9.15;7.50;;;23.70;99.90;;;;;;5048000;28;20271;-51
2022/07/30 09:33:36;;;;;;;11.15;6.97;;;23.60;99.90;;;;;;5047586;28;20225;-51
2022/07/30 09:36:05;;;;;;;8.65;6.68;;;23.70;99.90;;;;;;5047192;28;20201;-50
2022/07/30 09:38:43;;;;;;;11.20;6.80;;;23.80;99.90;;;;;;5047935;28;20287;-51
2022/07/30 09:41:11;;;;;;;10.98;6.20;;;24.00;99.90;;;;;;5048328;28;20236;-50
2022/07/30 09:44:04;;;;;;;9.02;5.65;;;24.20;99.90;;;;;;5048169;28;20295;-50
2022/07/30 09:46:42;;;;;;;9.55;7.05;;;24.10;99.90;;;;;;5046819;28;20248;-49
2022/07/30 09:49:18;;;;;;;13.52;7.40;;;24.00;99.90;;;;;;5046035;28;20222;-50
2022/07/30 09:51:47;;;;;;;9.27;6.75;;;24.20;99.90;;;;;;5042391;28;20206;-51
2022/07/30 09:54:47;;;;;;;9.50;6.55;;;24.30;99.90;;;;;;5049534;28;20209;-49
2022/07/30 09:57:19;;;;;;;8.20;6.35;;;24.40;99.90;;;;;;5049997;28;20635;-51
2022/07/30 09:59:56;;;;;;;6.82;5.68;;;24.40;99.90;;;;;;5055580;28;20228;-50
2022/07/30 10:02:30;;;;;;;9.48;6.70;;;24.40;99.90;;;;;;5049101;28;20201;-51
2022/07/30 10:05:10;;;;;;;12.50;6.32;;;24.50;99.90;;;;;;5054395;28;20201;-49
2022/07/30 10:07:49;;;;;;;9.10;6.97;;;24.40;99.90;;;;;;5050751;28;20237;-51
2022/07/30 10:10:21;;;;;;;9.32;6.90;;;24.60;99.90;;;;;;5048787;28;20256;-50
2022/07/30 10:12:56;;;;;;;10.30;6.43;;;24.50;99.90;;;;;;5051610;28;20278;-51
2022/07/30 10:15:28;;;;;;;12.70;6.57;;;24.60;99.90;;;;;;5049152;28;20253;-51
2022/07/30 10:17:57;;;;;;;13.43;6.10;;;24.60;99.90;;;;;;5052415;28;20256;-51
2022/07/30 10:20:27;;;;;;;7.72;6.25;;;24.80;99.90;;;;;;5043691;28;20686;-51
2022/07/30 10:22:55;;;;;;;8.70;6.57;;;24.70;99.90;;;;;;5046533;28;20312;-49
2022/07/30 10:25:25;;;;;;;10.25;5.93;;;24.70;99.90;;;;;;5049253;28;20263;-51
2022/07/30 10:27:55;;;;;;;7.68;6.13;;;24.80;99.90;;;;;;5049116;28;20233;-51
2022/07/30 10:30:26;;;;;;;10.23;6.20;;;24.70;99.90;;;;;;5049027;28;20209;-51
2022/07/30 10:32:58;;;;;;;7.75;5.88;;;24.60;99.90;;;;;;5048373;28;20205;-50
2022/07/30 10:35:29;;;;;;;8.68;5.10;;;24.80;99.90;;;;;;5044147;28;20214;-51
2022/07/30 10:38:09;;;;;;;9.50;5.95;;;24.90;99.90;;;;;;5047749;28;20859;-51
2022/07/30 10:40:48;;;;;;;11.65;5.13;;;25.00;99.90;;;;;;5049265;28;20198;-51
2022/07/30 10:43:58;;;;;;;6.63;5.13;;;25.20;99.90;;;;;;5044983;28;20263;-50
2022/07/30 10:46:42;;;;;;;8.55;5.28;;;25.30;99.90;;;;;;5039049;28;20224;-55
2022/07/30 10:49:11;;;;;;;7.05;5.32;;;25.30;99.90;;;;;;5047345;28;20234;-50
2022/07/30 10:51:50;;;;;;;6.47;4.97;;;25.30;99.90;;;;;;5047773;28;20240;-51
2022/07/30 10:54:43;;;;;;;8.50;5.05;;;25.20;99.90;;;;;;5040454;28;20206;-50
2022/07/30 10:57:13;;;;;;;6.40;4.85;;;25.30;99.90;;;;;;5046710;28;20275;-51
2022/07/30 11:00:12;;;;;;;9.35;4.88;;;25.20;99.90;;;;;;5047491;28;20251;-51
2022/07/30 11:03:15;;;;;;;8.93;4.57;;;25.30;99.90;;;;;;5041641;28;20616;-50
2022/07/30 11:05:47;;;;;;;8.65;4.55;;;25.60;99.90;;;;;;5040563;28;20288;-51
2022/07/30 11:08:37;;;;;;;8.48;4.32;;;25.50;99.90;;;;;;5048688;28;20287;-51
2022/07/30 11:11:44;;;;;;;7.97;4.85;;;25.60;99.90;;;;;;5052331;28;20748;-51
2022/07/30 11:15:00;;;;;;;4.32;3.70;;;25.50;99.90;;;;;;5044187;28;20292;-52
2022/07/30 11:18:07;;;;;;;6.20;3.63;;;25.90;99.90;;;;;;5050048;28;20232;-50
2022/07/30 11:20:40;;;;;;;6.35;3.88;;;26.20;99.90;;;;;;5043450;28;20282;-51
2022/07/30 11:23:39;;;;;;;7.72;3.92;;;26.30;99.90;;;;;;5045411;28;20208;-52
2022/07/30 11:26:07;;;;;;;6.15;4.10;;;26.20;99.90;;;;;;5046765;28;20213;-52
2022/07/30 11:28:43;;;;;;;6.03;4.10;;;26.00;99.90;;;;;;5046794;28;20229;-50
2022/07/30 11:31:32;;;;;;;7.15;4.07;;;26.00;99.90;;;;;;5043805;28;20678;-50
2022/07/30 11:34:29;;;;;;;6.80;4.30;;;26.10;99.90;;;;;;5040353;28;20275;-51
2022/07/30 11:37:08;;;;;;;9.20;4.20;;;26.30;99.90;;;;;;5045187;28;20228;-51
2022/07/30 11:40:10;;;;;;;6.07;3.78;;;26.50;99.90;;;;;;5047800;28;20224;-50
2022/07/30 11:42:41;;;;;;;7.18;3.75;;;26.70;99.90;;;;;;5043199;28;20198;-51
2022/07/30 11:45:25;;;;;;;6.45;4.28;;;26.70;99.90;;;;;;5045665;28;20205;-51
2022/07/30 11:47:55;;;;;;;5.53;3.80;;;26.60;99.90;;;;;;5042576;28;20221;-51
2022/07/30 11:50:25;;;;;;;5.93;3.83;;;26.80;99.90;;;;;;5041243;28;20785;-51
2022/07/30 11:52:55;;;;;;;5.70;3.80;;;26.60;99.90;;;;;;5039393;28;20209;-50
2022/07/30 11:55:27;;;;;;;5.13;3.90;;;26.50;99.90;;;;;;5042903;28;20209;-51
2022/07/30 11:57:57;;;;;;;6.85;4.13;;;26.30;99.90;;;;;;5043986;28;20773;-51
2022/07/30 12:00:25;;;;;;;4.50;3.33;;;26.70;99.90;;;;;;5050776;28;20240;-52
2022/07/30 12:02:54;;;;;;;5.07;3.60;;;26.70;99.90;;;;;;5039456;28;20251;-52
2022/07/30 12:05:27;;;;;;;6.60;3.70;;;26.70;99.90;;;;;;5050626;28;20205;-52
2022/07/30 12:07:58;;;;;;;5.88;3.65;;;26.50;99.90;;;;;;5048165;28;20279;-51
2022/07/30 12:10:28;;;;;;;6.72;4.00;;;26.40;99.90;;;;;;5047987;28;20225;-51
2022/07/30 12:13:07;;;;;;;6.30;3.80;;;26.30;99.90;;;;;;5048997;28;20209;-52
2022/07/30 12:15:38;;;;;;;5.28;3.45;;;26.30;99.90;;;;;;5049615;28;20209;-50
2022/07/30 12:18:07;;;;;;;5.82;3.78;;;26.30;99.90;;;;;;5036874;28;20299;-52
2022/07/30 12:20:55;;;;;;;5.03;3.42;;;26.40;99.90;;;;;;5039359;28;20217;-51
2022/07/30 12:23:27;;;;;;;6.93;3.90;;;26.40;99.90;;;;;;5049123;28;20210;-51
2022/07/30 12:25:57;;;;;;;5.05;3.50;;;26.50;99.90;;;;;;5051188;28;20201;-51
2022/07/30 12:28:27;;;;;;;3.92;3.30;;;26.40;99.90;;;;;;5049943;28;20291;-51
2022/07/30 12:30:56;;;;;;;4.82;3.08;;;26.50;99.90;;;;;;5049522;28;21408;-51
2022/07/30 12:33:25;;;;;;;5.40;3.92;;;26.40;99.90;;;;;;5049845;28;20209;-51
2022/07/30 12:35:55;;;;;;;5.30;3.45;;;26.40;99.90;;;;;;5049559;28;20201;-51
2022/07/30 12:38:25;;;;;;;5.75;3.40;;;26.50;99.90;;;;;;5049954;28;20234;-51
2022/07/30 12:40:58;;;;;;;4.47;3.35;;;26.30;99.90;;;;;;5045266;28;20194;-52
2022/07/30 12:43:46;;;;;;;4.07;3.63;;;26.40;99.90;;;;;;5050902;28;20279;-51
2022/07/30 12:46:16;;;;;;;7.28;3.55;;;26.40;99.90;;;;;;5050907;28;20279;-51
2022/07/30 12:48:53;;;;;;;6.18;3.40;;;26.30;99.90;;;;;;5049416;28;20229;-51
2022/07/30 12:51:22;;;;;;;7.35;3.55;;;26.30;99.90;;;;;;5050819;28;20214;-51
2022/07/30 12:53:52;;;;;;;6.28;3.40;;;26.50;99.90;;;;;;5049947;28;20216;-50
2022/07/30 12:56:23;;;;;;;4.68;3.58;;;26.60;99.90;;;;;;5054154;28;20209;-51
2022/07/30 12:58:51;;;;;;;5.72;3.70;;;26.80;99.90;;;;;;5052501;28;20263;-51
2022/07/30 13:01:19;;;;;;;5.90;3.53;;;26.90;99.90;;;;;;5048963;28;20213;-51
2022/07/30 13:03:48;;;;;;;5.25;3.40;;;26.90;99.30;;;;;;5044465;28;20292;-51